createdAt,value
2022-09-14T00:02:16.473Z,3.83
2022-09-14T00:04:48.967Z,4.13
2022-09-14T00:07:18.719Z,3.65
2022-09-14T00:09:49.091Z,2.42
2022-09-14T00:12:18.990Z,5.50
2022-09-14T00:14:49.203Z,4.82
2022-09-14T00:17:19.131Z,2.33
2022-09-14T00:19:53.394Z,2.35
2022-09-14T00:24:53.089Z,3.25
2022-09-14T00:27:22.815Z,2.40
2022-09-14T00:29:52.799Z,3.50
2022-09-14T00:32:22.506Z,4.45
2022-09-14T00:34:54.867Z,2.50
2022-09-14T00:37:24.587Z,6.93
2022-09-14T00:39:54.951Z,3.20
2022-09-14T00:42:24.829Z,4.93
2022-09-14T00:45:04.162Z,4.15
2022-09-14T00:47:35.334Z,2.75
2022-09-14T00:50:08.909Z,3.55
2022-09-14T00:52:42.913Z,3.08
2022-09-14T00:55:15.407Z,1.70
2022-09-14T00:57:47.872Z,4.90
2022-09-14T01:00:20.313Z,4.57
2022-09-14T01:02:50.058Z,2.85
2022-09-14T01:05:27.661Z,3.58
2022-09-14T01:08:24.841Z,5.20
2022-09-14T01:11:07.728Z,3.95
2022-09-14T01:13:44.440Z,3.10
2022-09-14T01:16:23.241Z,6.45
2022-09-14T01:18:57.915Z,1.85
2022-09-14T01:21:34.101Z,2.92
2022-09-14T01:24:14.581Z,4.25
2022-09-14T01:27:14.240Z,3.63
2022-09-14T01:29:52.557Z,3.67
2022-09-14T01:32:26.533Z,2.60
2022-09-14T01:35:02.855Z,3.78
2022-09-14T01:37:37.816Z,5.97
2022-09-14T01:40:13.402Z,6.22
2022-09-14T01:42:46.838Z,6.05
2022-09-14T01:45:22.464Z,14.73
2022-09-14T01:47:56.749Z,5.97
2022-09-14T01:53:02.249Z,20.38
2022-09-14T01:55:36.514Z,13.85
2022-09-14T02:00:46.066Z,10.70
2022-09-14T02:03:19.394Z,9.40
2022-09-14T02:05:54.822Z,9.52
2022-09-14T02:08:25.243Z,7.45
2022-09-14T02:10:54.981Z,9.88
2022-09-14T02:13:24.787Z,11.40
2022-09-14T02:15:57.403Z,8.43
2022-09-14T02:18:27.547Z,8.13
2022-09-14T02:21:00.697Z,6.80
2022-09-14T02:23:31.163Z,9.48
2022-09-14T02:26:01.209Z,9.52
2022-09-14T02:28:30.978Z,9.32
2022-09-14T02:31:11.657Z,8.38
2022-09-14T02:33:48.195Z,7.35
2022-09-14T02:36:22.639Z,7.75
2022-09-14T02:38:59.007Z,9.50
2022-09-14T02:41:42.078Z,6.03
2022-09-14T02:44:21.363Z,6.65
2022-09-14T02:47:01.367Z,8.05
2022-09-14T02:49:40.589Z,9.10
2022-09-14T02:52:18.297Z,6.53
2022-09-14T02:54:54.133Z,7.70
2022-09-14T02:57:23.996Z,7.10
2022-09-14T02:59:56.115Z,7.63
2022-09-14T03:02:28.567Z,12.45
2022-09-14T03:04:58.317Z,8.98
2022-09-14T03:07:28.039Z,8.63
2022-09-14T03:09:57.757Z,9.73
2022-09-14T03:12:27.486Z,10.77
2022-09-14T03:14:57.220Z,10.25
2022-09-14T03:17:29.556Z,8.65
2022-09-14T03:19:59.718Z,7.57
2022-09-14T03:22:29.448Z,11.05
2022-09-14T03:24:59.210Z,7.88
2022-09-14T03:27:28.932Z,8.02
2022-09-14T03:29:58.663Z,9.55
2022-09-14T03:32:30.975Z,8.35
2022-09-14T03:35:00.817Z,8.88
2022-09-14T03:37:30.542Z,11.50
2022-09-14T03:40:00.343Z,9.20
2022-09-14T03:42:30.227Z,8.00
2022-09-14T03:45:00.422Z,11.50
2022-09-14T03:47:32.737Z,15.70
2022-09-14T03:50:02.571Z,9.75
2022-09-14T03:52:32.333Z,10.98
2022-09-14T03:55:02.058Z,12.82
2022-09-14T03:57:31.790Z,9.27
2022-09-14T04:00:01.554Z,10.30
2022-09-14T04:02:33.878Z,9.00
2022-09-14T04:05:03.667Z,9.10
2022-09-14T04:07:33.410Z,10.13
2022-09-14T04:10:03.135Z,9.35
2022-09-14T04:12:37.760Z,12.07
2022-09-14T04:15:08.650Z,9.23
2022-09-14T04:17:40.963Z,10.27
2022-09-14T04:20:12.131Z,9.65
2022-09-14T04:22:41.887Z,13.68
2022-09-14T04:25:12.016Z,11.65
2022-09-14T04:27:41.803Z,12.10
2022-09-14T04:30:12.664Z,10.18
2022-09-14T04:32:44.988Z,11.75
2022-09-14T04:35:14.740Z,9.50
2022-09-14T04:37:44.451Z,9.60
2022-09-14T04:40:14.695Z,10.20
2022-09-14T04:42:44.518Z,12.38
2022-09-14T04:45:14.366Z,11.27
2022-09-14T04:47:46.923Z,12.05
2022-09-14T04:50:16.779Z,10.43
2022-09-14T04:52:46.506Z,10.35
2022-09-14T04:55:16.403Z,10.90
2022-09-14T04:57:46.135Z,11.63
2022-09-14T05:00:16.836Z,13.85
2022-09-14T05:02:49.273Z,11.35
2022-09-14T05:05:19.203Z,11.02
2022-09-14T05:07:48.997Z,12.95
2022-09-14T05:10:19.366Z,15.18
2022-09-14T05:12:49.103Z,13.15
2022-09-14T05:15:18.910Z,17.02
2022-09-14T05:17:51.246Z,15.98
2022-09-14T05:20:21.055Z,15.45
2022-09-14T05:22:52.765Z,17.25
2022-09-14T05:25:22.580Z,17.00
2022-09-14T05:27:52.905Z,19.05
2022-09-14T05:30:22.615Z,18.35
2022-09-14T05:32:57.933Z,20.08
2022-09-14T05:35:27.913Z,22.33
2022-09-14T05:37:57.647Z,18.88
2022-09-14T05:40:27.466Z,17.40
2022-09-14T05:42:57.286Z,21.30
2022-09-14T05:45:27.349Z,19.20
2022-09-14T05:48:04.751Z,17.80
2022-09-14T05:50:34.899Z,16.55
2022-09-14T05:53:04.703Z,18.35
2022-09-14T05:55:34.424Z,18.45
2022-09-14T05:58:04.509Z,16.67
2022-09-14T06:00:35.011Z,17.20
2022-09-14T06:03:07.487Z,17.40
2022-09-14T06:05:37.799Z,20.23
2022-09-14T06:08:07.896Z,17.65
2022-09-14T06:10:37.648Z,16.30
2022-09-14T06:13:07.813Z,17.05
2022-09-14T06:15:38.123Z,13.13
2022-09-14T06:18:10.478Z,13.80
2022-09-14T06:20:40.203Z,16.73
2022-09-14T06:23:09.958Z,13.10
2022-09-14T06:25:39.729Z,19.90
2022-09-14T06:28:09.425Z,18.45
2022-09-14T06:30:39.176Z,13.05
2022-09-14T06:33:11.469Z,17.60
2022-09-14T06:35:42.133Z,12.90
2022-09-14T06:38:12.076Z,12.48
2022-09-14T06:40:41.780Z,9.88
2022-09-14T06:43:11.562Z,9.57
2022-09-14T06:45:41.400Z,12.10
2022-09-14T06:48:13.705Z,8.98
2022-09-14T06:50:43.472Z,7.78
2022-09-14T06:53:13.387Z,10.30
2022-09-14T06:55:44.754Z,9.55
2022-09-14T06:58:14.714Z,8.10
2022-09-14T07:00:44.627Z,9.25
2022-09-14T07:03:17.017Z,10.63
2022-09-14T07:05:46.780Z,11.43
2022-09-14T07:08:16.563Z,9.02
2022-09-14T07:10:46.312Z,8.75
2022-09-14T07:13:16.031Z,9.45
2022-09-14T07:15:51.967Z,9.82
2022-09-14T07:18:29.091Z,7.40
2022-09-14T07:21:02.327Z,6.97
2022-09-14T07:23:34.921Z,11.30
2022-09-14T07:26:06.465Z,10.23
2022-09-14T07:28:36.775Z,10.50
2022-09-14T07:31:07.571Z,9.13
2022-09-14T07:33:39.974Z,7.80
2022-09-14T07:36:11.379Z,6.05
2022-09-14T07:38:52.149Z,9.80
2022-09-14T07:41:23.407Z,5.85
2022-09-14T07:43:54.051Z,7.53
2022-09-14T07:46:24.824Z,6.05
2022-09-14T07:49:01.120Z,6.95
2022-09-14T07:51:31.908Z,7.30
2022-09-14T07:54:01.885Z,5.43
2022-09-14T07:56:31.968Z,6.60
2022-09-14T07:59:24.210Z,5.10
2022-09-14T08:01:52.742Z,11.18
2022-09-14T08:04:25.299Z,7.15
2022-09-14T08:06:55.049Z,7.88
2022-09-14T08:09:25.820Z,5.50
2022-09-14T08:11:56.101Z,7.72
2022-09-14T08:14:26.047Z,4.47
2022-09-14T08:16:55.851Z,6.22
2022-09-14T08:19:28.421Z,6.88
2022-09-14T08:21:58.183Z,4.25
2022-09-14T08:24:27.957Z,6.40
2022-09-14T08:26:57.666Z,6.05
2022-09-14T08:29:27.457Z,3.75
2022-09-14T08:31:58.498Z,5.18
2022-09-14T08:34:31.155Z,6.68
2022-09-14T08:37:00.918Z,3.58
2022-09-14T08:39:30.702Z,6.25
2022-09-14T08:42:03.656Z,5.43
2022-09-14T08:44:38.770Z,10.60
2022-09-14T08:47:14.634Z,4.38
2022-09-14T08:49:51.851Z,10.45
2022-09-14T08:52:28.387Z,6.40
2022-09-14T08:55:01.475Z,7.18
2022-09-14T08:57:37.044Z,6.97
2022-09-14T09:00:12.119Z,4.00
2022-09-14T09:03:01.342Z,4.38
2022-09-14T09:05:42.959Z,5.32
2022-09-14T09:08:20.267Z,4.00
2022-09-14T09:10:52.667Z,9.50
2022-09-14T09:13:25.041Z,3.55
2022-09-14T09:15:59.902Z,9.05
2022-09-14T09:18:38.983Z,5.30
2022-09-14T09:21:15.524Z,5.13
2022-09-14T09:23:46.362Z,3.28
2022-09-14T09:26:23.988Z,7.80
2022-09-14T09:28:57.009Z,6.03
2022-09-14T09:31:32.749Z,7.07
2022-09-14T09:34:04.082Z,5.50
2022-09-14T09:36:39.211Z,5.82
2022-09-14T09:39:09.647Z,6.85
2022-09-14T09:41:46.764Z,5.90
2022-09-14T09:44:16.910Z,4.97
2022-09-14T09:46:51.236Z,4.05
2022-09-14T09:49:27.552Z,4.40
2022-09-14T09:52:09.085Z,6.30
2022-09-14T09:54:40.434Z,3.90
2022-09-14T09:57:24.265Z,3.88
2022-09-14T09:59:54.023Z,9.30
2022-09-14T10:02:26.736Z,3.95
2022-09-14T10:05:05.153Z,5.65
2022-09-14T10:07:40.420Z,4.70
2022-09-14T10:10:13.878Z,4.75
2022-09-14T10:12:54.347Z,4.90
2022-09-14T10:15:26.047Z,4.57
2022-09-14T10:18:10.722Z,5.53
2022-09-14T10:20:42.781Z,7.95
2022-09-14T10:23:27.619Z,4.22
2022-09-14T10:26:29.906Z,5.63
2022-09-14T10:29:27.152Z,5.22
2022-09-14T10:32:00.873Z,2.40
2022-09-14T10:34:31.773Z,5.88
2022-09-14T10:37:14.442Z,3.85
2022-09-14T10:39:53.982Z,3.35
2022-09-14T10:42:34.342Z,3.42
2022-09-14T10:45:18.387Z,4.55
2022-09-14T10:48:09.277Z,3.28
2022-09-14T10:50:51.361Z,4.20
2022-09-14T10:53:36.805Z,5.43
2022-09-14T10:56:16.311Z,3.13
2022-09-14T10:59:06.068Z,4.40
2022-09-14T11:01:57.361Z,4.40
2022-09-14T11:04:48.116Z,2.92
2022-09-14T11:07:24.781Z,4.85
2022-09-14T11:10:03.948Z,5.57
2022-09-14T11:12:44.981Z,3.92
2022-09-14T11:15:24.043Z,5.78
2022-09-14T11:18:11.438Z,4.28
2022-09-14T11:20:51.475Z,4.05
2022-09-14T11:23:33.386Z,3.70
2022-09-14T11:26:06.483Z,4.47
2022-09-14T11:28:44.653Z,5.73
2022-09-14T11:31:19.266Z,4.88
2022-09-14T11:33:53.399Z,5.53
2022-09-14T11:36:28.275Z,2.20
2022-09-14T11:39:06.937Z,2.47
2022-09-14T11:41:42.015Z,3.47
2022-09-14T11:44:19.526Z,4.30
2022-09-14T11:46:55.693Z,4.68
2022-09-14T11:49:34.393Z,2.60
2022-09-14T11:52:10.659Z,4.53
2022-09-14T11:54:46.587Z,3.40
2022-09-14T11:57:20.478Z,6.28
2022-09-14T11:59:55.936Z,3.75
2022-09-14T12:03:15.957Z,2.63
2022-09-14T12:05:47.121Z,4.90
2022-09-14T12:08:42.297Z,4.70
2022-09-14T12:11:33.190Z,4.63
2022-09-14T12:14:35.778Z,5.63
2022-09-14T12:17:38.411Z,5.85
2022-09-14T12:20:33.898Z,3.50
2022-09-14T12:23:09.278Z,3.17
2022-09-14T12:25:41.577Z,4.45
2022-09-14T12:28:30.710Z,5.13
2022-09-14T12:31:14.896Z,3.15
2022-09-14T12:34:17.672Z,5.25
2022-09-14T12:37:12.070Z,3.80
2022-09-14T12:42:34.298Z,4.07
2022-09-14T12:45:33.977Z,3.72
2022-09-14T12:48:03.856Z,6.88
2022-09-14T12:50:36.876Z,8.85
2022-09-14T12:53:26.554Z,2.43
2022-09-14T12:56:09.576Z,3.92
2022-09-14T12:58:59.849Z,4.30
2022-09-14T13:01:37.386Z,9.20
2022-09-14T13:04:08.324Z,6.22
2022-09-14T13:06:45.615Z,7.68
2022-09-14T13:09:21.768Z,5.20
2022-09-14T13:11:58.947Z,4.43
2022-09-14T13:14:34.297Z,5.63
2022-09-14T13:17:05.821Z,6.53
2022-09-14T13:19:36.904Z,5.05
2022-09-14T13:22:20.600Z,5.95
2022-09-14T13:24:51.750Z,7.75
2022-09-14T13:27:26.715Z,5.82
2022-09-14T13:30:10.314Z,5.03
2022-09-14T13:32:48.929Z,4.30
2022-09-14T13:35:21.138Z,6.07
2022-09-14T13:37:52.147Z,4.63
2022-09-14T13:40:27.963Z,6.18
2022-09-14T13:42:58.670Z,3.67
2022-09-14T13:45:31.627Z,2.95
2022-09-14T13:48:01.804Z,6.20
2022-09-14T13:50:31.564Z,7.45
2022-09-14T13:53:03.596Z,4.75
2022-09-14T13:55:46.871Z,7.28
2022-09-14T13:58:23.704Z,4.40
2022-09-14T14:01:04.833Z,4.82
2022-09-14T14:03:37.130Z,2.50
2022-09-14T14:06:22.209Z,4.05
2022-09-14T14:09:02.188Z,4.20
2022-09-14T14:11:35.836Z,3.72
2022-09-14T14:14:22.351Z,4.40
2022-09-14T14:17:28.090Z,5.50
2022-09-14T14:20:02.385Z,5.10
2022-09-14T14:25:21.196Z,5.38
2022-09-14T14:27:51.170Z,4.28
2022-09-14T14:30:25.724Z,5.13
2022-09-14T14:32:56.735Z,2.70
2022-09-14T14:35:30.937Z,2.38
2022-09-14T14:40:32.109Z,6.28
2022-09-14T14:43:04.274Z,4.13
2022-09-14T14:45:36.535Z,5.43
2022-09-14T14:48:08.419Z,3.03
2022-09-14T14:50:41.250Z,3.38
2022-09-14T14:53:11.664Z,4.45
2022-09-14T14:55:41.572Z,3.72
2022-09-14T14:58:17.656Z,5.50
2022-09-14T15:00:47.708Z,4.85
2022-09-14T15:03:18.980Z,4.32
2022-09-14T15:05:51.839Z,6.22
2022-09-14T15:08:22.428Z,12.35
2022-09-14T15:10:58.533Z,6.82
2022-09-14T15:13:28.247Z,19.30
2022-09-14T15:15:57.992Z,9.40
2022-09-14T15:18:27.815Z,9.35
2022-09-14T15:21:00.246Z,32.03
2022-09-14T15:23:30.150Z,16.58
2022-09-14T15:25:59.921Z,15.93
2022-09-14T15:28:30.626Z,24.52
2022-09-14T15:31:00.383Z,4.38
2022-09-14T15:33:30.093Z,8.25
2022-09-14T15:36:03.463Z,2.28
2022-09-14T15:38:33.281Z,4.97
2022-09-14T15:41:02.993Z,2.28
2022-09-14T15:43:32.825Z,1.98
2022-09-14T15:46:05.260Z,3.88
2022-09-14T15:48:35.096Z,7.53
2022-09-14T15:51:13.439Z,5.85
2022-09-14T15:53:45.616Z,5.72
2022-09-14T15:56:18.066Z,2.17
2022-09-14T15:58:48.300Z,3.90
2022-09-14T16:01:19.961Z,2.95
2022-09-14T16:03:49.786Z,2.22
2022-09-14T16:06:22.098Z,3.50
2022-09-14T16:08:52.012Z,1.80
2022-09-14T16:11:23.292Z,1.40
2022-09-14T16:13:54.013Z,1.15
2022-09-14T16:16:24.284Z,3.45
2022-09-14T16:18:54.185Z,3.92
2022-09-14T16:21:29.353Z,5.75
2022-09-14T16:24:02.777Z,5.30
2022-09-14T16:26:34.584Z,3.38
2022-09-14T16:29:04.599Z,3.05
2022-09-14T16:31:36.889Z,4.10
2022-09-14T16:34:09.560Z,8.57
2022-09-14T16:36:43.024Z,1.77
2022-09-14T16:39:14.948Z,5.60
2022-09-14T16:41:44.960Z,2.95
2022-09-14T16:44:18.154Z,4.10
2022-09-14T16:46:49.532Z,2.80
2022-09-14T16:49:23.591Z,2.17
2022-09-14T16:52:00.682Z,4.53
2022-09-14T16:54:31.782Z,2.00
2022-09-14T16:57:01.716Z,3.22
2022-09-14T16:59:31.692Z,2.35
2022-09-14T17:02:01.465Z,3.42
2022-09-14T17:04:31.243Z,2.10
2022-09-14T17:07:03.568Z,3.58
2022-09-14T17:09:34.320Z,3.15
2022-09-14T17:12:04.589Z,2.20
2022-09-14T17:14:35.598Z,2.67
2022-09-14T17:17:05.461Z,7.00
2022-09-14T17:19:38.554Z,5.63
2022-09-14T17:22:14.348Z,2.95
2022-09-14T17:24:44.260Z,1.85
2022-09-14T17:27:14.107Z,2.33
2022-09-14T17:29:43.986Z,5.32
2022-09-14T17:32:15.059Z,2.63
2022-09-14T17:34:45.896Z,2.58
2022-09-14T17:37:18.387Z,2.10
2022-09-14T17:39:48.226Z,3.60
2022-09-14T17:42:17.961Z,5.40
2022-09-14T17:44:47.950Z,4.78
2022-09-14T17:47:17.693Z,4.90
2022-09-14T17:49:47.720Z,5.40
2022-09-14T17:52:20.057Z,3.53
2022-09-14T17:54:49.779Z,5.40
2022-09-14T17:57:19.838Z,3.78
2022-09-14T17:59:49.835Z,5.60
2022-09-14T18:02:19.924Z,3.47
2022-09-14T18:04:49.980Z,3.05
2022-09-14T18:07:24.228Z,4.20
2022-09-14T18:12:23.799Z,3.47
2022-09-14T18:14:53.577Z,5.90
2022-09-14T18:17:23.580Z,2.53
2022-09-14T18:19:58.316Z,4.25
2022-09-14T18:22:30.866Z,3.08
2022-09-14T18:25:00.790Z,8.02
2022-09-14T18:27:31.202Z,11.95
2022-09-14T18:30:01.605Z,7.10
2022-09-14T18:32:31.589Z,5.63
2022-09-14T18:35:01.536Z,5.30
2022-09-14T18:37:33.834Z,4.35
2022-09-14T18:40:04.390Z,5.03
2022-09-14T18:42:34.133Z,4.05
2022-09-14T18:45:03.842Z,5.60
2022-09-14T18:47:33.561Z,4.88
2022-09-14T18:50:03.299Z,8.18
2022-09-14T18:52:35.900Z,5.97
2022-09-14T18:55:05.759Z,5.13
2022-09-14T18:57:35.513Z,7.43
2022-09-14T19:00:06.782Z,3.95
2022-09-14T19:02:36.714Z,4.18
2022-09-14T19:05:07.398Z,6.50
2022-09-14T19:07:40.904Z,2.88
2022-09-14T19:10:12.045Z,4.97
2022-09-14T19:12:42.140Z,6.10
2022-09-14T19:15:12.933Z,10.43
2022-09-14T19:17:42.644Z,9.07
2022-09-14T19:20:13.201Z,7.25
2022-09-14T19:22:45.749Z,3.90
2022-09-14T19:25:15.587Z,8.38
2022-09-14T19:27:45.528Z,5.35
2022-09-14T19:30:16.386Z,9.18
2022-09-14T19:32:46.181Z,10.13
2022-09-14T19:35:15.880Z,6.57
2022-09-14T19:37:48.231Z,6.78
2022-09-14T19:40:18.195Z,5.00
2022-09-14T19:42:48.423Z,4.70
2022-09-14T19:45:18.530Z,6.97
2022-09-14T19:47:48.410Z,4.57
2022-09-14T19:50:18.243Z,4.45
2022-09-14T19:52:50.556Z,3.90
2022-09-14T19:55:20.406Z,4.22
2022-09-14T19:57:50.213Z,4.25
2022-09-14T20:00:20.118Z,5.78
2022-09-14T20:02:49.914Z,6.07
2022-09-14T20:05:19.772Z,2.90
2022-09-14T20:07:52.179Z,9.77
2022-09-14T20:10:23.242Z,5.80
2022-09-14T20:12:52.986Z,6.53
2022-09-14T20:15:22.745Z,3.55
2022-09-14T20:17:57.212Z,5.10
2022-09-14T20:20:27.018Z,5.95
2022-09-14T20:22:59.327Z,2.85
2022-09-14T20:25:29.059Z,6.05
2022-09-14T20:27:58.847Z,4.80
2022-09-14T20:30:28.643Z,3.05
2022-09-14T20:32:58.357Z,3.13
2022-09-14T20:35:28.187Z,3.53
2022-09-14T20:38:00.711Z,3.22
2022-09-14T20:40:30.490Z,3.70
2022-09-14T20:43:01.198Z,5.75
2022-09-14T20:45:30.917Z,3.35
2022-09-14T20:48:00.617Z,3.40
2022-09-14T20:50:30.379Z,6.35
2022-09-14T20:53:03.119Z,3.20
2022-09-14T20:55:35.018Z,5.38
2022-09-14T20:58:04.815Z,6.30
2022-09-14T21:00:34.622Z,4.30
2022-09-14T21:03:04.493Z,4.55
2022-09-14T21:05:34.264Z,6.22
2022-09-14T21:08:07.350Z,3.85
2022-09-14T21:10:40.929Z,3.60
2022-09-14T21:13:10.632Z,3.97
2022-09-14T21:15:40.525Z,3.42
2022-09-14T21:18:10.298Z,3.67
2022-09-14T21:20:44.529Z,5.28
2022-09-14T21:25:46.396Z,4.50
2022-09-14T21:28:16.167Z,8.35
2022-09-14T21:30:45.987Z,4.65
2022-09-14T21:33:16.491Z,5.88
2022-09-14T21:35:46.512Z,7.18
2022-09-14T21:38:18.793Z,6.35
2022-09-14T21:40:48.524Z,10.13
2022-09-14T21:43:18.200Z,4.18
2022-09-14T21:45:48.243Z,3.08
2022-09-14T21:48:17.974Z,4.55
2022-09-14T21:50:47.905Z,6.38
2022-09-14T21:53:20.389Z,3.22
2022-09-14T21:55:50.085Z,5.78
2022-09-14T21:58:19.949Z,4.40
2022-09-14T22:00:49.668Z,6.97
2022-09-14T22:03:19.713Z,3.13
2022-09-14T22:05:57.503Z,4.68
2022-09-14T22:08:31.117Z,4.90
2022-09-14T22:11:05.828Z,5.97
2022-09-14T22:13:36.153Z,4.85
2022-09-14T22:16:10.457Z,3.72
2022-09-14T22:21:11.367Z,7.80
2022-09-14T22:23:43.656Z,4.43
2022-09-14T22:26:14.502Z,7.53
2022-09-14T22:28:44.687Z,5.90
2022-09-14T22:31:14.405Z,4.72
2022-09-14T22:33:44.195Z,5.13
2022-09-14T22:36:14.897Z,4.28
2022-09-14T22:38:47.319Z,8.13
2022-09-14T22:41:20.915Z,7.13
2022-09-14T22:43:51.095Z,4.60
2022-09-14T22:46:22.141Z,5.47
2022-09-14T22:48:52.894Z,3.95
2022-09-14T22:51:26.439Z,5.30
2022-09-14T22:53:59.034Z,7.60
2022-09-14T22:56:31.211Z,6.30
2022-09-14T22:59:03.009Z,6.43
2022-09-14T23:01:35.173Z,4.70
2022-09-14T23:04:06.864Z,6.60
2022-09-14T23:06:38.976Z,5.05
2022-09-14T23:09:13.771Z,6.35
2022-09-14T23:11:44.901Z,7.60
2022-09-14T23:14:18.527Z,5.05
2022-09-14T23:16:48.338Z,8.20
2022-09-14T23:19:19.682Z,3.90
2022-09-14T23:21:49.986Z,7.60
2022-09-14T23:24:22.441Z,6.22
2022-09-14T23:26:52.203Z,8.55
2022-09-14T23:29:21.915Z,6.50
2022-09-14T23:31:51.643Z,8.15
2022-09-14T23:34:21.350Z,5.90
2022-09-14T23:36:51.072Z,6.50
2022-09-14T23:39:23.548Z,10.13
2022-09-14T23:41:53.306Z,8.52
2022-09-14T23:44:23.042Z,6.57
2022-09-14T23:46:52.783Z,5.72
2022-09-14T23:49:23.036Z,10.02
2022-09-14T23:51:52.757Z,6.50
2022-09-14T23:54:25.303Z,6.90
2022-09-14T23:56:55.965Z,8.55
2022-09-14T23:59:26.168Z,6.35
